sensor_id;sensor_type;location;lat;lon;timestamp;pressure;altitude;pressure_sealevel;temperature;humidity
74065;BME280;62421;51.412;5.432;2023-10-08T00:02:25;102174.66;;;15.73;100.00
74065;BME280;62421;51.412;5.432;2023-10-08T00:04:53;102173.13;;;15.69;100.00
74065;BME280;62421;51.412;5.432;2023-10-08T00:07:23;102176.78;;;15.68;100.00
74065;BME280;62421;51.412;5.432;2023-10-08T00:09:51;102175.06;;;15.67;100.00
74065;BME280;62421;51.412;5.432;2023-10-08T00:12:18;102185.22;;;15.63;100.00
74065;BME280;62421;51.412;5.432;2023-10-08T00:14:44;102179.19;;;15.60;100.00
74065;BME280;62421;51.412;5.432;2023-10-08T00:17:11;102177.66;;;15.55;100.00
74065;BME280;62421;51.412;5.432;2023-10-08T00:19:37;102174.41;;;15.50;100.00
74065;BME280;62421;51.412;5.432;2023-10-08T00:22:03;102194.00;;;15.41;100.00
74065;BME280;62421;51.412;5.432;2023-10-08T00:24:32;102181.75;;;15.35;100.00
74065;BME280;62421;51.412;5.432;2023-10-08T00:26:58;102187.69;;;15.28;100.00
74065;BME280;62421;51.412;5.432;2023-10-08T00:29:25;102178.25;;;15.21;100.00
74065;BME280;62421;51.412;5.432;2023-10-08T00:31:52;102193.28;;;15.12;100.00
74065;BME280;62421;51.412;5.432;2023-10-08T00:34:18;102191.09;;;15.04;100.00
74065;BME280;62421;51.412;5.432;2023-10-08T00:36:46;102184.41;;;14.97;100.00
74065;BME280;62421;51.412;5.432;2023-10-08T00:39:13;102187.28;;;14.94;100.00
74065;BME280;62421;51.412;5.432;2023-10-08T00:41:44;102193.97;;;14.88;100.00
74065;BME280;62421;51.412;5.432;2023-10-08T00:44:10;102203.06;;;14.87;100.00
74065;BME280;62421;51.412;5.432;2023-10-08T00:46:49;102199.59;;;14.85;100.00
74065;BME280;62421;51.412;5.432;2023-10-08T00:49:23;102190.94;;;14.80;100.00
74065;BME280;62421;51.412;5.432;2023-10-08T00:52:09;102192.41;;;14.71;100.00
74065;BME280;62421;51.412;5.432;2023-10-08T00:54:38;102192.69;;;14.67;100.00
74065;BME280;62421;51.412;5.432;2023-10-08T00:57:32;102205.09;;;14.57;100.00
74065;BME280;62421;51.412;5.432;2023-10-08T01:00:01;102214.63;;;14.48;100.00
74065;BME280;62421;51.412;5.432;2023-10-08T01:02:30;102215.81;;;14.44;100.00
74065;BME280;62421;51.412;5.432;2023-10-08T01:05:13;102209.72;;;14.40;100.00
74065;BME280;62421;51.412;5.432;2023-10-08T01:07:41;102217.25;;;14.35;100.00
74065;BME280;62421;51.412;5.432;2023-10-08T01:10:10;102218.31;;;14.32;100.00
74065;BME280;62421;51.412;5.432;2023-10-08T01:12:36;102209.63;;;14.27;100.00
74065;BME280;62421;51.412;5.432;2023-10-08T01:15:15;102204.53;;;14.23;100.00
74065;BME280;62421;51.412;5.432;2023-10-08T01:17:53;102195.75;;;14.19;100.00
74065;BME280;62421;51.412;5.432;2023-10-08T01:20:50;102190.94;;;14.10;100.00
74065;BME280;62421;51.412;5.432;2023-10-08T01:23:17;102173.41;;;14.03;100.00
74065;BME280;62421;51.412;5.432;2023-10-08T01:25:47;102183.72;;;13.96;100.00
74065;BME280;62421;51.412;5.432;2023-10-08T01:28:27;102191.22;;;13.91;100.00
74065;BME280;62421;51.412;5.432;2023-10-08T01:31:00;102197.00;;;13.85;100.00
74065;BME280;62421;51.412;5.432;2023-10-08T01:33:28;102189.22;;;13.80;100.00
74065;BME280;62421;51.412;5.432;2023-10-08T01:35:55;102183.81;;;13.80;100.00
74065;BME280;62421;51.412;5.432;2023-10-08T01:38:20;102184.88;;;13.78;100.00
74065;BME280;62421;51.412;5.432;2023-10-08T01:40:51;102174.16;;;13.76;100.00
74065;BME280;62421;51.412;5.432;2023-10-08T01:43:17;102182.16;;;13.78;100.00
74065;BME280;62421;51.412;5.432;2023-10-08T01:45:43;102179.00;;;13.71;100.00
74065;BME280;62421;51.412;5.432;2023-10-08T01:48:14;102162.09;;;13.67;100.00
74065;BME280;62421;51.412;5.432;2023-10-08T01:50:40;102178.31;;;13.67;100.00
74065;BME280;62421;51.412;5.432;2023-10-08T01:53:05;102166.44;;;13.70;100.00
74065;BME280;62421;51.412;5.432;2023-10-08T01:55:35;102170.81;;;13.72;100.00
74065;BME280;62421;51.412;5.432;2023-10-08T01:58:14;102173.59;;;13.71;100.00
74065;BME280;62421;51.412;5.432;2023-10-08T02:00:48;102189.69;;;13.72;100.00
74065;BME280;62421;51.412;5.432;2023-10-08T02:03:14;102184.38;;;13.71;100.00
74065;BME280;62421;51.412;5.432;2023-10-08T02:05:45;102171.47;;;13.76;100.00
74065;BME280;62421;51.412;5.432;2023-10-08T02:08:12;102194.81;;;13.77;100.00
74065;BME280;62421;51.412;5.432;2023-10-08T02:10:42;102201.28;;;13.75;100.00
74065;BME280;62421;51.412;5.432;2023-10-08T02:13:09;102191.34;;;13.75;100.00
74065;BME280;62421;51.412;5.432;2023-10-08T02:15:45;102204.63;;;13.78;100.00
74065;BME280;62421;51.412;5.432;2023-10-08T02:18:11;102210.72;;;13.82;100.00
74065;BME280;62421;51.412;5.432;2023-10-08T02:20:39;102198.94;;;13.83;100.00
74065;BME280;62421;51.412;5.432;2023-10-08T02:23:04;102201.75;;;13.81;100.00
74065;BME280;62421;51.412;5.432;2023-10-08T02:25:30;102199.84;;;13.83;100.00
74065;BME280;62421;51.412;5.432;2023-10-08T02:27:56;102200.69;;;13.84;100.00
74065;BME280;62421;51.412;5.432;2023-10-08T02:30:23;102200.59;;;13.85;100.00
74065;BME280;62421;51.412;5.432;2023-10-08T02:32:48;102197.78;;;13.87;100.00
74065;BME280;62421;51.412;5.432;2023-10-08T02:35:14;102194.22;;;13.86;100.00
74065;BME280;62421;51.412;5.432;2023-10-08T02:37:40;102192.50;;;13.85;100.00
74065;BME280;62421;51.412;5.432;2023-10-08T02:40:09;102206.19;;;13.82;100.00
74065;BME280;62421;51.412;5.432;2023-10-08T02:42:54;102207.16;;;13.81;100.00
74065;BME280;62421;51.412;5.432;2023-10-08T02:45:26;102204.47;;;13.81;100.00
74065;BME280;62421;51.412;5.432;2023-10-08T02:47:52;102210.63;;;13.83;100.00
74065;BME280;62421;51.412;5.432;2023-10-08T02:50:19;102214.19;;;13.84;100.00
74065;BME280;62421;51.412;5.432;2023-10-08T02:52:44;102214.38;;;13.81;100.00
74065;BME280;62421;51.412;5.432;2023-10-08T02:55:10;102219.88;;;13.79;100.00
74065;BME280;62421;51.412;5.432;2023-10-08T02:57:49;102227.88;;;13.81;100.00
74065;BME280;62421;51.412;5.432;2023-10-08T03:00:16;102228.06;;;13.78;100.00
74065;BME280;62421;51.412;5.432;2023-10-08T03:02:44;102220.81;;;13.78;100.00
74065;BME280;62421;51.412;5.432;2023-10-08T03:05:11;102223.53;;;13.78;100.00
74065;BME280;62421;51.412;5.432;2023-10-08T03:07:38;102231.63;;;13.78;100.00
74065;BME280;62421;51.412;5.432;2023-10-08T03:10:05;102226.34;;;13.77;100.00
74065;BME280;62421;51.412;5.432;2023-10-08T03:12:45;102225.44;;;13.76;100.00
74065;BME280;62421;51.412;5.432;2023-10-08T03:15:12;102225.44;;;13.76;100.00
74065;BME280;62421;51.412;5.432;2023-10-08T03:17:39;102226.50;;;13.73;100.00
74065;BME280;62421;51.412;5.432;2023-10-08T03:20:17;102226.50;;;13.73;100.00
74065;BME280;62421;51.412;5.432;2023-10-08T03:23:03;102219.41;;;13.72;100.00
74065;BME280;62421;51.412;5.432;2023-10-08T03:25:32;102233.84;;;13.71;100.00
74065;BME280;62421;51.412;5.432;2023-10-08T03:28:06;102236.63;;;13.70;100.00
74065;BME280;62421;51.412;5.432;2023-10-08T03:30:33;102251.09;;;13.69;100.00
74065;BME280;62421;51.412;5.432;2023-10-08T03:33:05;102242.31;;;13.65;100.00
74065;BME280;62421;51.412;5.432;2023-10-08T03:35:35;102249.47;;;13.66;100.00
74065;BME280;62421;51.412;5.432;2023-10-08T03:38:02;102252.81;;;13.70;100.00
74065;BME280;62421;51.412;5.432;2023-10-08T03:40:47;102258.34;;;13.68;100.00
74065;BME280;62421;51.412;5.432;2023-10-08T03:43:15;102249.25;;;13.69;100.00
74065;BME280;62421;51.412;5.432;2023-10-08T03:45:45;102254.66;;;13.69;100.00
74065;BME280;62421;51.412;5.432;2023-10-08T03:48:19;102253.72;;;13.70;100.00
74065;BME280;62421;51.412;5.432;2023-10-08T03:50:47;102258.22;;;13.70;100.00
74065;BME280;62421;51.412;5.432;2023-10-08T03:53:22;102266.31;;;13.70;100.00
74065;BME280;62421;51.412;5.432;2023-10-08T03:55:48;102259.41;;;13.66;100.00
74065;BME280;62421;51.412;5.432;2023-10-08T03:58:16;102256.69;;;13.66;100.00
74065;BME280;62421;51.412;5.432;2023-10-08T04:00:56;102257.63;;;13.65;100.00
74065;BME280;62421;51.412;5.432;2023-10-08T04:03:41;102252.16;;;13.66;100.00
74065;BME280;62421;51.412;5.432;2023-10-08T04:06:27;102251.28;;;13.66;100.00
74065;BME280;62421;51.412;5.432;2023-10-08T04:08:57;102241.38;;;13.66;100.00
74065;BME280;62421;51.412;5.432;2023-10-08T04:11:34;102235.09;;;13.66;100.00
74065;BME280;62421;51.412;5.432;2023-10-08T04:14:15;102243.09;;;13.67;100.00
74065;BME280;62421;51.412;5.432;2023-10-08T04:16:43;102218.91;;;13.66;100.00
74065;BME280;62421;51.412;5.432;2023-10-08T04:19:10;102229.78;;;13.64;100.00
74065;BME280;62421;51.412;5.432;2023-10-08T04:21:36;102246.28;;;13.60;100.00
74065;BME280;62421;51.412;5.432;2023-10-08T04:24:01;102258.97;;;13.58;100.00
74065;BME280;62421;51.412;5.432;2023-10-08T04:26:36;102249.13;;;13.57;100.00
74065;BME280;62421;51.412;5.432;2023-10-08T04:29:04;102245.50;;;13.58;100.00
74065;BME280;62421;51.412;5.432;2023-10-08T04:31:32;102238.34;;;13.57;100.00
74065;BME280;62421;51.412;5.432;2023-10-08T04:34:09;102244.78;;;13.54;100.00
74065;BME280;62421;51.412;5.432;2023-10-08T04:36:46;102255.88;;;13.49;100.00
74065;BME280;62421;51.412;5.432;2023-10-08T04:39:14;102265.09;;;13.45;100.00
74065;BME280;62421;51.412;5.432;2023-10-08T04:41:47;102264.53;;;13.40;100.00
74065;BME280;62421;51.412;5.432;2023-10-08T04:44:14;102255.81;;;13.35;100.00
74065;BME280;62421;51.412;5.432;2023-10-08T04:46:44;102251.28;;;13.36;100.00
74065;BME280;62421;51.412;5.432;2023-10-08T04:49:15;102264.88;;;13.34;100.00
74065;BME280;62421;51.412;5.432;2023-10-08T04:54:27;102260.75;;;13.27;100.00
74065;BME280;62421;51.412;5.432;2023-10-08T04:56:57;102269.91;;;13.24;100.00
74065;BME280;62421;51.412;5.432;2023-10-08T04:59:24;102279.13;;;13.20;100.00
74065;BME280;62421;51.412;5.432;2023-10-08T05:01:57;102292.81;;;13.17;100.00
74065;BME280;62421;51.412;5.432;2023-10-08T05:04:41;102295.66;;;13.14;100.00
74065;BME280;62421;51.412;5.432;2023-10-08T05:07:25;102286.72;;;13.14;100.00
74065;BME280;62421;51.412;5.432;2023-10-08T05:10:09;102285.06;;;13.11;100.00
74065;BME280;62421;51.412;5.432;2023-10-08T05:12:34;102281.59;;;13.09;100.00
74065;BME280;62421;51.412;5.432;2023-10-08T05:15:06;102295.06;;;13.09;100.00
74065;BME280;62421;51.412;5.432;2023-10-08T05:17:41;102294.22;;;13.08;100.00
74065;BME280;62421;51.412;5.432;2023-10-08T05:20:32;102290.72;;;13.06;100.00
74065;BME280;62421;51.412;5.432;2023-10-08T05:23:17;102298.13;;;13.03;100.00
74065;BME280;62421;51.412;5.432;2023-10-08T05:26:06;102296.47;;;13.00;100.00
74065;BME280;62421;51.412;5.432;2023-10-08T05:28:35;102304.66;;;12.99;100.00
74065;BME280;62421;51.412;5.432;2023-10-08T05:31:08;102300.22;;;12.98;100.00
74065;BME280;62421;51.412;5.432;2023-10-08T05:33:47;102302.13;;;12.96;100.00
74065;BME280;62421;51.412;5.432;2023-10-08T05:36:30;102311.09;;;12.96;100.00
74065;BME280;62421;51.412;5.432;2023-10-08T05:39:14;102314.66;;;12.97;100.00
74065;BME280;62421;51.412;5.432;2023-10-08T05:41:49;102311.78;;;13.00;100.00
74065;BME280;62421;51.412;5.432;2023-10-08T05:44:20;102312.56;;;13.02;100.00
74065;BME280;62421;51.412;5.432;2023-10-08T05:46:45;102330.56;;;13.01;100.00
74065;BME280;62421;51.412;5.432;2023-10-08T05:49:21;102340.47;;;13.01;100.00
74065;BME280;62421;51.412;5.432;2023-10-08T05:51:55;102348.56;;;13.01;100.00
74065;BME280;62421;51.412;5.432;2023-10-08T05:54:25;102339.63;;;13.00;100.00
74065;BME280;62421;51.412;5.432;2023-10-08T05:56:59;102338.66;;;13.01;100.00
74065;BME280;62421;51.412;5.432;2023-10-08T05:59:30;102338.56;;;13.03;100.00
74065;BME280;62421;51.412;5.432;2023-10-08T06:02:04;102324.16;;;13.04;100.00
74065;BME280;62421;51.412;5.432;2023-10-08T06:04:50;102312.31;;;13.06;100.00
74065;BME280;62421;51.412;5.432;2023-10-08T06:07:36;102294.22;;;13.08;100.00
74065;BME280;62421;51.412;5.432;2023-10-08T06:10:14;102290.72;;;13.06;100.00
74065;BME280;62421;51.412;5.432;2023-10-08T06:13:02;102298.97;;;13.03;100.00
74065;BME280;62421;51.412;5.432;2023-10-08T06:15:56;102308.97;;;13.01;100.00
74065;BME280;62421;51.412;5.432;2023-10-08T06:18:24;102291.09;;;13.00;100.00
74065;BME280;62421;51.412;5.432;2023-10-08T06:20:54;102295.63;;;13.00;100.00
74065;BME280;62421;51.412;5.432;2023-10-08T06:23:29;102298.38;;;12.98;100.00
74065;BME280;62421;51.412;5.432;2023-10-08T06:25:57;102288.47;;;12.99;100.00
74065;BME280;62421;51.412;5.432;2023-10-08T06:28:25;102269.50;;;13.00;100.00
74065;BME280;62421;51.412;5.432;2023-10-08T06:30:53;102284.91;;;12.98;100.00
74065;BME280;62421;51.412;5.432;2023-10-08T06:33:23;102289.53;;;12.96;100.00
74065;BME280;62421;51.412;5.432;2023-10-08T06:36:02;102289.72;;;12.93;100.00
74065;BME280;62421;51.412;5.432;2023-10-08T06:38:29;102314.06;;;12.91;100.00
74065;BME280;62421;51.412;5.432;2023-10-08T06:40:58;102313.19;;;12.91;100.00
74065;BME280;62421;51.412;5.432;2023-10-08T06:43:26;102314.91;;;12.92;100.00
74065;BME280;62421;51.412;5.432;2023-10-08T06:45:52;102316.56;;;12.95;100.00
74065;BME280;62421;51.412;5.432;2023-10-08T06:48:21;102322.06;;;12.93;100.00
74065;BME280;62421;51.412;5.432;2023-10-08T06:50:50;102321.09;;;12.94;100.00
74065;BME280;62421;51.412;5.432;2023-10-08T06:53:17;102317.59;;;12.92;100.00
74065;BME280;62421;51.412;5.432;2023-10-08T06:55:46;102308.47;;;12.95;100.00
74065;BME280;62421;51.412;5.432;2023-10-08T06:58:14;102313.97;;;12.93;100.00
74065;BME280;62421;51.412;5.432;2023-10-08T07:00:40;102318.84;;;12.86;100.00
74065;BME280;62421;51.412;5.432;2023-10-08T07:03:12;102322.66;;;12.82;100.00
74065;BME280;62421;51.412;5.432;2023-10-08T07:05:41;102331.69;;;12.81;100.00
74065;BME280;62421;51.412;5.432;2023-10-08T07:08:07;102332.47;;;12.83;100.00
74065;BME280;62421;51.412;5.432;2023-10-08T07:10:34;102328.84;;;12.84;100.00
74065;BME280;62421;51.412;5.432;2023-10-08T07:13:00;102334.13;;;12.86;100.00
74065;BME280;62421;51.412;5.432;2023-10-08T07:15:28;102337.59;;;12.88;100.00
74065;BME280;62421;51.412;5.432;2023-10-08T07:17:55;102333.78;;;12.92;100.00
74065;BME280;62421;51.412;5.432;2023-10-08T07:20:20;102338.84;;;12.98;100.00
74065;BME280;62421;51.412;5.432;2023-10-08T07:22:49;102330.41;;;13.04;100.00
74065;BME280;62421;51.412;5.432;2023-10-08T07:25:21;102336.31;;;13.11;100.00
74065;BME280;62421;51.412;5.432;2023-10-08T07:27:47;102335.97;;;13.17;100.00
74065;BME280;62421;51.412;5.432;2023-10-08T07:30:13;102331.94;;;13.24;100.00
74065;BME280;62421;51.412;5.432;2023-10-08T07:32:39;102339.63;;;13.32;100.00
74065;BME280;62421;51.412;5.432;2023-10-08T07:35:05;102344.69;;;13.38;100.00
74065;BME280;62421;51.412;5.432;2023-10-08T07:37:45;102356.00;;;13.45;100.00
74065;BME280;62421;51.412;5.432;2023-10-08T07:40:12;102354.56;;;13.54;100.00
74065;BME280;62421;51.412;5.432;2023-10-08T07:42:38;102348.91;;;13.58;100.00
74065;BME280;62421;51.412;5.432;2023-10-08T07:45:04;102353.09;;;13.64;100.00
74065;BME280;62421;51.412;5.432;2023-10-08T07:47:30;102357.16;;;13.71;100.00
74065;BME280;62421;51.412;5.432;2023-10-08T07:49:55;102362.00;;;13.80;100.00
74065;BME280;62421;51.412;5.432;2023-10-08T07:52:21;102363.38;;;13.87;100.00
74065;BME280;62421;51.412;5.432;2023-10-08T07:54:46;102360.28;;;13.93;100.00
74065;BME280;62421;51.412;5.432;2023-10-08T07:57:12;102357.22;;;14.00;100.00
74065;BME280;62421;51.412;5.432;2023-10-08T07:59:42;102358.69;;;14.05;100.00
74065;BME280;62421;51.412;5.432;2023-10-08T08:02:15;102367.28;;;14.12;100.00
74065;BME280;62421;51.412;5.432;2023-10-08T08:04:43;102365.06;;;14.19;100.00
74065;BME280;62421;51.412;5.432;2023-10-08T08:07:10;102370.09;;;14.25;100.00
74065;BME280;62421;51.412;5.432;2023-10-08T08:09:45;102384.03;;;14.33;100.00
74065;BME280;62421;51.412;5.432;2023-10-08T08:12:20;102378.81;;;14.44;100.00
74065;BME280;62421;51.412;5.432;2023-10-08T08:14:48;102381.34;;;14.62;100.00
74065;BME280;62421;51.412;5.432;2023-10-08T08:17:14;102380.84;;;14.84;100.00
74065;BME280;62421;51.412;5.432;2023-10-08T08:19:44;102393.13;;;15.04;100.00
74065;BME280;62421;51.412;5.432;2023-10-08T08:22:12;102402.56;;;15.25;100.00
74065;BME280;62421;51.412;5.432;2023-10-08T08:24:41;102410.22;;;15.46;100.00
74065;BME280;62421;51.412;5.432;2023-10-08T08:27:10;102404.69;;;15.62;100.00
74065;BME280;62421;51.412;5.432;2023-10-08T08:29:54;102405.31;;;15.65;100.00
74065;BME280;62421;51.412;5.432;2023-10-08T08:32:26;102400.66;;;15.67;100.00
74065;BME280;62421;51.412;5.432;2023-10-08T08:34:53;102413.13;;;15.70;100.00
74065;BME280;62421;51.412;5.432;2023-10-08T08:37:19;102417.09;;;15.79;100.00
74065;BME280;62421;51.412;5.432;2023-10-08T08:39:50;102411.94;;;15.88;100.00
74065;BME280;62421;51.412;5.432;2023-10-08T08:42:21;102420.00;;;16.03;100.00
74065;BME280;62421;51.412;5.432;2023-10-08T08:44:48;102430.09;;;16.13;100.00
74065;BME280;62421;51.412;5.432;2023-10-08T08:47:17;102425.22;;;16.18;100.00
74065;BME280;62421;51.412;5.432;2023-10-08T08:49:44;102431.72;;;16.16;100.00
74065;BME280;62421;51.412;5.432;2023-10-08T08:52:10;102429.97;;;16.15;100.00
74065;BME280;62421;51.412;5.432;2023-10-08T08:54:36;102436.16;;;16.17;100.00
74065;BME280;62421;51.412;5.432;2023-10-08T08:57:03;102434.97;;;16.21;100.00
74065;BME280;62421;51.412;5.432;2023-10-08T08:59:30;102425.56;;;16.27;100.00
74065;BME280;62421;51.412;5.432;2023-10-08T09:01:59;102431.78;;;16.42;100.00
74065;BME280;62421;51.412;5.432;2023-10-08T09:04:32;102431.22;;;16.62;100.00
74065;BME280;62421;51.412;5.432;2023-10-08T09:07:00;102429.50;;;16.74;100.00
74065;BME280;62421;51.412;5.432;2023-10-08T09:09:33;102427.88;;;16.71;100.00
74065;BME280;62421;51.412;5.432;2023-10-08T09:11:59;102435.13;;;16.71;100.00
74065;BME280;62421;51.412;5.432;2023-10-08T09:14:26;102438.97;;;16.81;100.00
74065;BME280;62421;51.412;5.432;2023-10-08T09:16:53;102433.94;;;16.88;100.00
74065;BME280;62421;51.412;5.432;2023-10-08T09:19:21;102444.91;;;16.99;100.00
74065;BME280;62421;51.412;5.432;2023-10-08T09:22:09;102445.78;;;17.12;100.00
74065;BME280;62421;51.412;5.432;2023-10-08T09:24:40;102439.22;;;17.28;100.00
74065;BME280;62421;51.412;5.432;2023-10-08T09:27:10;102435.13;;;17.46;100.00
74065;BME280;62421;51.412;5.432;2023-10-08T09:29:43;102437.50;;;17.51;100.00
74065;BME280;62421;51.412;5.432;2023-10-08T09:32:11;102448.69;;;17.46;100.00
74065;BME280;62421;51.412;5.432;2023-10-08T09:34:36;102435.06;;;17.35;100.00
74065;BME280;62421;51.412;5.432;2023-10-08T09:37:02;102437.88;;;17.33;100.00
74065;BME280;62421;51.412;5.432;2023-10-08T09:39:29;102444.25;;;17.45;100.00
74065;BME280;62421;51.412;5.432;2023-10-08T09:42:02;102440.50;;;17.59;100.00
74065;BME280;62421;51.412;5.432;2023-10-08T09:44:28;102446.44;;;17.77;100.00
74065;BME280;62421;51.412;5.432;2023-10-08T09:47:05;102446.16;;;17.93;100.00
74065;BME280;62421;51.412;5.432;2023-10-08T09:49:41;102444.47;;;18.03;100.00
74065;BME280;62421;51.412;5.432;2023-10-08T09:52:08;102441.13;;;17.99;100.00
74065;BME280;62421;51.412;5.432;2023-10-08T09:54:54;102428.00;;;17.93;100.00
74065;BME280;62421;51.412;5.432;2023-10-08T09:57:22;102433.13;;;17.85;100.00
74065;BME280;62421;51.412;5.432;2023-10-08T09:59:49;102429.22;;;17.89;100.00
74065;BME280;62421;51.412;5.432;2023-10-08T10:02:16;102428.38;;;18.00;100.00
74065;BME280;62421;51.412;5.432;2023-10-08T10:04:45;102433.75;;;18.13;100.00
74065;BME280;62421;51.412;5.432;2023-10-08T10:07:12;102429.19;;;18.13;100.00
74065;BME280;62421;51.412;5.432;2023-10-08T10:09:45;102433.47;;;18.05;100.00
74065;BME280;62421;51.412;5.432;2023-10-08T10:12:21;102421.88;;;18.03;100.00
74065;BME280;62421;51.412;5.432;2023-10-08T10:14:55;102415.47;;;18.15;100.00
74065;BME280;62421;51.412;5.432;2023-10-08T10:17:23;102405.47;;;18.15;100.00
74065;BME280;62421;51.412;5.432;2023-10-08T10:19:56;102407.94;;;18.18;100.00
74065;BME280;62421;51.412;5.432;2023-10-08T10:24:54;102408.16;;;18.51;100.00
74065;BME280;62421;51.412;5.432;2023-10-08T10:27:20;102412.47;;;18.65;100.00
74065;BME280;62421;51.412;5.432;2023-10-08T10:29:46;102413.88;;;18.81;100.00
74065;BME280;62421;51.412;5.432;2023-10-08T10:32:14;102431.22;;;18.92;100.00
74065;BME280;62421;51.412;5.432;2023-10-08T10:34:43;102429.47;;;19.02;100.00
74065;BME280;62421;51.412;5.432;2023-10-08T10:37:10;102422.53;;;19.09;100.00
74065;BME280;62421;51.412;5.432;2023-10-08T10:39:54;102427.56;;;19.25;100.00
74065;BME280;62421;51.412;5.432;2023-10-08T10:42:22;102428.94;;;19.31;100.00
74065;BME280;62421;51.412;5.432;2023-10-08T10:44:48;102426.56;;;19.37;100.00
74065;BME280;62421;51.412;5.432;2023-10-08T10:47:19;102415.03;;;19.56;100.00
74065;BME280;62421;51.412;5.432;2023-10-08T10:49:51;102425.28;;;19.64;100.00
74065;BME280;62421;51.412;5.432;2023-10-08T10:52:32;102424.66;;;19.60;100.00
74065;BME280;62421;51.412;5.432;2023-10-08T10:55:05;102435.31;;;19.63;100.00
74065;BME280;62421;51.412;5.432;2023-10-08T10:57:44;102423.50;;;19.86;100.00
74065;BME280;62421;51.412;5.432;2023-10-08T11:00:19;102416.88;;;19.99;100.00
74065;BME280;62421;51.412;5.432;2023-10-08T11:03:04;102415.41;;;19.95;100.00
74065;BME280;62421;51.412;5.432;2023-10-08T11:05:42;102417.31;;;19.83;100.00
74065;BME280;62421;51.412;5.432;2023-10-08T11:08:14;102419.34;;;19.70;100.00
74065;BME280;62421;51.412;5.432;2023-10-08T11:10:42;102414.75;;;19.59;100.00
74065;BME280;62421;51.412;5.432;2023-10-08T11:13:16;102422.22;;;19.46;100.00
74065;BME280;62421;51.412;5.432;2023-10-08T11:15:43;102411.63;;;19.32;100.00
74065;BME280;62421;51.412;5.432;2023-10-08T11:18:13;102420.41;;;19.24;100.00
74065;BME280;62421;51.412;5.432;2023-10-08T11:20:40;102415.72;;;19.26;100.00
74065;BME280;62421;51.412;5.432;2023-10-08T11:23:09;102423.34;;;19.43;100.00
74065;BME280;62421;51.412;5.432;2023-10-08T11:25:54;102416.50;;;19.60;100.00
74065;BME280;62421;51.412;5.432;2023-10-08T11:28:19;102421.56;;;19.65;100.00
74065;BME280;62421;51.412;5.432;2023-10-08T11:30:45;102425.13;;;19.65;100.00
74065;BME280;62421;51.412;5.432;2023-10-08T11:33:12;102419.63;;;19.56;100.00
74065;BME280;62421;51.412;5.432;2023-10-08T11:35:57;102420.75;;;19.53;100.00
74065;BME280;62421;51.412;5.432;2023-10-08T11:38:26;102424.22;;;19.55;100.00
74065;BME280;62421;51.412;5.432;2023-10-08T11:40:53;102421.34;;;19.57;100.00
74065;BME280;62421;51.412;5.432;2023-10-08T11:43:23;102418.22;;;19.61;100.00
74065;BME280;62421;51.412;5.432;2023-10-08T11:45:48;102412.75;;;19.61;100.00
74065;BME280;62421;51.412;5.432;2023-10-08T11:48:14;102408.22;;;19.51;100.00
74065;BME280;62421;51.412;5.432;2023-10-08T11:50:43;102411.72;;;19.41;100.00
74065;BME280;62421;51.412;5.432;2023-10-08T11:53:09;102414.66;;;19.50;100.00
74065;BME280;62421;51.412;5.432;2023-10-08T11:55:36;102405.94;;;19.67;100.00
74065;BME280;62421;51.412;5.432;2023-10-08T11:58:04;102404.09;;;19.79;100.00
74065;BME280;62421;51.412;5.432;2023-10-08T12:00:36;102400.13;;;19.72;100.00
74065;BME280;62421;51.412;5.432;2023-10-08T12:03:09;102391.31;;;19.79;100.00
74065;BME280;62421;51.412;5.432;2023-10-08T12:05:36;102384.28;;;19.98;100.00
74065;BME280;62421;51.412;5.432;2023-10-08T12:08:01;102385.91;;;20.00;100.00
74065;BME280;62421;51.412;5.432;2023-10-08T12:10:27;102385.19;;;19.87;100.00
74065;BME280;62421;51.412;5.432;2023-10-08T12:12:56;102378.47;;;19.59;100.00
74065;BME280;62421;51.412;5.432;2023-10-08T12:15:25;102375.50;;;19.62;100.00
74065;BME280;62421;51.412;5.432;2023-10-08T12:17:59;102369.53;;;19.68;100.00
74065;BME280;62421;51.412;5.432;2023-10-08T12:20:37;102362.84;;;19.72;100.00
74065;BME280;62421;51.412;5.432;2023-10-08T12:23:05;102355.28;;;19.76;100.00
74065;BME280;62421;51.412;5.432;2023-10-08T12:25:34;102367.66;;;19.80;100.00
74065;BME280;62421;51.412;5.432;2023-10-08T12:28:00;102371.91;;;19.61;100.00
74065;BME280;62421;51.412;5.432;2023-10-08T12:30:33;102366.88;;;19.46;100.00
74065;BME280;62421;51.412;5.432;2023-10-08T12:33:06;102373.84;;;19.38;100.00
74065;BME280;62421;51.412;5.432;2023-10-08T12:35:32;102371.28;;;19.26;100.00
74065;BME280;62421;51.412;5.432;2023-10-08T12:37:57;102365.69;;;19.27;100.00
74065;BME280;62421;51.412;5.432;2023-10-08T12:40:23;102365.97;;;19.24;100.00
74065;BME280;62421;51.412;5.432;2023-10-08T12:42:51;102373.50;;;19.32;100.00
74065;BME280;62421;51.412;5.432;2023-10-08T12:45:17;102370.41;;;19.25;100.00
74065;BME280;62421;51.412;5.432;2023-10-08T12:47:47;102364.75;;;19.17;100.00
74065;BME280;62421;51.412;5.432;2023-10-08T12:50:13;102359.78;;;19.22;100.00
74065;BME280;62421;51.412;5.432;2023-10-08T12:52:43;102353.59;;;19.20;100.00
74065;BME280;62421;51.412;5.432;2023-10-08T12:55:19;102355.91;;;19.24;100.00
74065;BME280;62421;51.412;5.432;2023-10-08T12:57:50;102359.88;;;19.20;100.00
74065;BME280;62421;51.412;5.432;2023-10-08T13:00:21;102354.75;;;19.06;100.00
74065;BME280;62421;51.412;5.432;2023-10-08T13:02:48;102343.19;;;19.14;100.00
74065;BME280;62421;51.412;5.432;2023-10-08T13:05:18;102338.34;;;19.29;100.00